Aérodrome :
LOGIN :

S'inscrire | Disclaimer

   EN    FR    IT 

 










Légende :    VFR   VFR Marginal   IFR   IFR Intensif   IFR Très Intensif
Visi : 
Plafond : 
>= 8 km
>= 3000ft
5 à 8 km
1000 à 3000 ft
1500m à 5 km
500 à 1000 ft
800 à 1500m
200 à 500 ft
< 800m
< 200 ft
Symboles :   Orages  Brouillard  Fortes neiges  Fortes précipitations  Vent > 20 kt
SIGMETs :   Divers  Orages  Givrage  Turbulence  Onde Orograph.  Cendres Volcan.







- Altitude de l'aérodrome : 461 ft
- Code IATA : WIE


ETOU - Wiesbaden Army

DERNIER METAR :
  • 152256Z AUTO 00000KT 9999 CLR 11/08 A3001 RMK AO2 SLP163 T01130083 402400097 $

METARs EXPIRÉS :
  • 152156Z AUTO 30003KT 9999 CLR 12/09 A3000 RMK AO2 SLP159 T01240085 $
  • 152056Z AUTO 00000KT 9999 CLR 13/09 A3000 RMK AO2 SLP160 T01340087 52009 $

TAF TAF ETOU
Valide du 15 à 19h jusqu'au 17 à 01h UTC


151900Z 1519/1701 04006KT 9999 FEW100 QNH2997INS
BECMG 1613/1614 05006KT 9999 FEW090 SCT110 QNH3009INS TX25/1615Z TN09/1610Z
Pas de NOTAMs connus pour ce terrain.



MET'MAP, la Météo Aéronautique d'un coup d'oeil ! - Copyright ORBIFLY Décembre 2007 - Disclaimer

ORBIFLY MET'MAP TEAM :

Programmation & Développement : Alexandra Zaïnal
Conception & Développement : Baudouin d'Aumeries
Co-Programmation & Développement : Marc-Olivier Méhu
Soutien technique & logistique : Manuel Goepfert

Contact : metmap@orbifly.com




SOURCES & CREDITS :

   NOAA